Danbury, United Kingdom
Current Conditions -  °F | °C
As of 10:50 PM on Friday 19 Dec 2014 (Local Time) from EGMC Reporting Station
Clear Clear  
Wind Chill:   Ceiling: Unl
Heat Index:   Visibility: 6mi
Dew Point:   Wind: 15mph
Humidity: 76%   Direction: 240°WSW
Pressure: 30.18"   Gusts: NA
Location:  51.72°N, 0.58°E
Report Text: EGMC 192250Z 24013KT CAVOK 06/02 Q1022
Loading
Personal Weather Stations






























Interactive Weather Map New forecast layout! Learn more

10-Day Weather Forecast

Advertisements
Track Severe Weather on mobile